sensor_id;sensor_type;location;lat;lon;timestamp;temperature;humidity
25192;DHT22;13143;50.924;5.320;2023-06-19T00:00:22;24.40;71.00
25192;DHT22;13143;50.924;5.320;2023-06-19T00:02:48;24.40;71.40
25192;DHT22;13143;50.924;5.320;2023-06-19T00:05:14;24.40;71.50
25192;DHT22;13143;50.924;5.320;2023-06-19T00:07:41;24.30;71.60
25192;DHT22;13143;50.924;5.320;2023-06-19T00:10:07;24.30;72.40
25192;DHT22;13143;50.924;5.320;2023-06-19T00:12:33;24.20;72.10
25192;DHT22;13143;50.924;5.320;2023-06-19T00:14:59;24.20;72.10
25192;DHT22;13143;50.924;5.320;2023-06-19T00:17:25;24.20;72.20
25192;DHT22;13143;50.924;5.320;2023-06-19T00:19:53;24.20;72.50
25192;DHT22;13143;50.924;5.320;2023-06-19T00:22:19;24.10;73.00
25192;DHT22;13143;50.924;5.320;2023-06-19T00:24:45;24.10;72.40
25192;DHT22;13143;50.924;5.320;2023-06-19T00:27:12;24.10;72.40
25192;DHT22;13143;50.924;5.320;2023-06-19T00:29:38;24.10;72.30
25192;DHT22;13143;50.924;5.320;2023-06-19T00:32:04;24.10;72.60
25192;DHT22;13143;50.924;5.320;2023-06-19T00:34:31;24.10;72.60
25192;DHT22;13143;50.924;5.320;2023-06-19T00:36:58;24.10;72.50
25192;DHT22;13143;50.924;5.320;2023-06-19T00:39:25;24.00;72.60
25192;DHT22;13143;50.924;5.320;2023-06-19T00:41:52;24.10;72.60
25192;DHT22;13143;50.924;5.320;2023-06-19T00:44:18;24.00;72.50
25192;DHT22;13143;50.924;5.320;2023-06-19T00:46:45;24.00;72.50
25192;DHT22;13143;50.924;5.320;2023-06-19T00:49:12;24.00;72.70
25192;DHT22;13143;50.924;5.320;2023-06-19T00:51:38;24.00;72.70
25192;DHT22;13143;50.924;5.320;2023-06-19T00:54:05;24.00;72.90
25192;DHT22;13143;50.924;5.320;2023-06-19T00:56:32;24.00;73.50
25192;DHT22;13143;50.924;5.320;2023-06-19T00:59:00;24.00;73.80
25192;DHT22;13143;50.924;5.320;2023-06-19T01:01:27;24.00;74.00
25192;DHT22;13143;50.924;5.320;2023-06-19T01:03:54;24.00;73.80
25192;DHT22;13143;50.924;5.320;2023-06-19T01:06:23;24.00;73.80
25192;DHT22;13143;50.924;5.320;2023-06-19T01:09:02;24.00;73.70
25192;DHT22;13143;50.924;5.320;2023-06-19T01:11:33;23.90;73.80
25192;DHT22;13143;50.924;5.320;2023-06-19T01:14:14;23.90;73.70
25192;DHT22;13143;50.924;5.320;2023-06-19T01:16:42;23.80;73.90
25192;DHT22;13143;50.924;5.320;2023-06-19T01:19:10;23.80;75.30
25192;DHT22;13143;50.924;5.320;2023-06-19T01:21:41;23.80;75.30
25192;DHT22;13143;50.924;5.320;2023-06-19T01:24:07;23.80;75.60
25192;DHT22;13143;50.924;5.320;2023-06-19T01:26:33;23.80;75.90
25192;DHT22;13143;50.924;5.320;2023-06-19T01:29:00;23.80;76.60
25192;DHT22;13143;50.924;5.320;2023-06-19T01:31:33;23.80;77.00
25192;DHT22;13143;50.924;5.320;2023-06-19T01:34:01;23.70;78.00
25192;DHT22;13143;50.924;5.320;2023-06-19T01:36:29;23.70;78.00
25192;DHT22;13143;50.924;5.320;2023-06-19T01:38:57;23.70;78.20
25192;DHT22;13143;50.924;5.320;2023-06-19T01:41:24;23.60;78.80
25192;DHT22;13143;50.924;5.320;2023-06-19T01:43:52;23.60;79.60
25192;DHT22;13143;50.924;5.320;2023-06-19T01:46:19;23.50;79.80
25192;DHT22;13143;50.924;5.320;2023-06-19T01:48:45;23.50;79.80
25192;DHT22;13143;50.924;5.320;2023-06-19T01:51:11;23.50;80.30
25192;DHT22;13143;50.924;5.320;2023-06-19T01:53:37;23.40;80.80
25192;DHT22;13143;50.924;5.320;2023-06-19T01:56:04;23.40;80.30
25192;DHT22;13143;50.924;5.320;2023-06-19T01:58:30;23.40;80.90
25192;DHT22;13143;50.924;5.320;2023-06-19T02:00:56;23.40;81.70
25192;DHT22;13143;50.924;5.320;2023-06-19T02:03:22;23.40;82.50
25192;DHT22;13143;50.924;5.320;2023-06-19T02:05:48;23.30;83.30
25192;DHT22;13143;50.924;5.320;2023-06-19T02:08:14;23.30;83.60
25192;DHT22;13143;50.924;5.320;2023-06-19T02:10:41;23.30;83.80
25192;DHT22;13143;50.924;5.320;2023-06-19T02:13:07;23.20;85.30
25192;DHT22;13143;50.924;5.320;2023-06-19T02:15:33;23.20;84.50
25192;DHT22;13143;50.924;5.320;2023-06-19T02:17:59;23.20;84.90
25192;DHT22;13143;50.924;5.320;2023-06-19T02:20:25;23.20;84.20
25192;DHT22;13143;50.924;5.320;2023-06-19T02:22:51;23.20;85.40
25192;DHT22;13143;50.924;5.320;2023-06-19T02:25:18;23.10;84.80
25192;DHT22;13143;50.924;5.320;2023-06-19T02:27:45;23.10;84.60
25192;DHT22;13143;50.924;5.320;2023-06-19T02:30:11;23.00;85.40
25192;DHT22;13143;50.924;5.320;2023-06-19T02:32:37;23.00;84.80
25192;DHT22;13143;50.924;5.320;2023-06-19T02:35:08;23.00;84.50
25192;DHT22;13143;50.924;5.320;2023-06-19T02:37:34;23.00;85.20
25192;DHT22;13143;50.924;5.320;2023-06-19T02:40:04;22.90;84.90
25192;DHT22;13143;50.924;5.320;2023-06-19T02:42:31;22.90;85.00
25192;DHT22;13143;50.924;5.320;2023-06-19T02:44:57;22.90;84.40
25192;DHT22;13143;50.924;5.320;2023-06-19T02:47:32;22.90;84.80
25192;DHT22;13143;50.924;5.320;2023-06-19T02:49:59;22.90;85.10
25192;DHT22;13143;50.924;5.320;2023-06-19T02:52:26;22.80;85.30
25192;DHT22;13143;50.924;5.320;2023-06-19T02:54:53;22.80;85.00
25192;DHT22;13143;50.924;5.320;2023-06-19T02:57:19;22.80;84.80
25192;DHT22;13143;50.924;5.320;2023-06-19T02:59:45;22.80;85.40
25192;DHT22;13143;50.924;5.320;2023-06-19T03:02:12;22.70;85.60
25192;DHT22;13143;50.924;5.320;2023-06-19T03:04:38;22.70;86.10
25192;DHT22;13143;50.924;5.320;2023-06-19T03:07:06;22.70;86.00
25192;DHT22;13143;50.924;5.320;2023-06-19T03:09:32;22.70;86.90
25192;DHT22;13143;50.924;5.320;2023-06-19T03:11:58;22.70;86.90
25192;DHT22;13143;50.924;5.320;2023-06-19T03:14:24;22.60;87.50
25192;DHT22;13143;50.924;5.320;2023-06-19T03:16:50;22.60;86.70
25192;DHT22;13143;50.924;5.320;2023-06-19T03:19:16;22.60;87.40
25192;DHT22;13143;50.924;5.320;2023-06-19T03:21:43;22.60;87.30
25192;DHT22;13143;50.924;5.320;2023-06-19T03:24:09;22.60;87.30
25192;DHT22;13143;50.924;5.320;2023-06-19T03:26:35;22.60;87.20
25192;DHT22;13143;50.924;5.320;2023-06-19T03:29:01;22.50;87.00
25192;DHT22;13143;50.924;5.320;2023-06-19T03:31:27;22.60;87.00
25192;DHT22;13143;50.924;5.320;2023-06-19T03:33:53;22.50;87.20
25192;DHT22;13143;50.924;5.320;2023-06-19T03:36:19;22.50;87.20
25192;DHT22;13143;50.924;5.320;2023-06-19T03:38:45;22.50;86.90
25192;DHT22;13143;50.924;5.320;2023-06-19T03:41:11;22.50;87.10
25192;DHT22;13143;50.924;5.320;2023-06-19T03:43:38;22.50;86.80
25192;DHT22;13143;50.924;5.320;2023-06-19T03:46:04;22.50;87.00
25192;DHT22;13143;50.924;5.320;2023-06-19T03:48:30;22.50;86.80
25192;DHT22;13143;50.924;5.320;2023-06-19T03:50:56;22.40;89.40
25192;DHT22;13143;50.924;5.320;2023-06-19T03:53:23;22.40;89.50
25192;DHT22;13143;50.924;5.320;2023-06-19T03:55:49;22.40;89.00
25192;DHT22;13143;50.924;5.320;2023-06-19T03:58:15;22.40;89.90
25192;DHT22;13143;50.924;5.320;2023-06-19T04:00:41;22.30;89.10
25192;DHT22;13143;50.924;5.320;2023-06-19T04:03:07;22.30;90.40
25192;DHT22;13143;50.924;5.320;2023-06-19T04:05:35;22.30;89.60
25192;DHT22;13143;50.924;5.320;2023-06-19T04:08:01;22.30;89.10
25192;DHT22;13143;50.924;5.320;2023-06-19T04:10:27;22.30;89.70
25192;DHT22;13143;50.924;5.320;2023-06-19T04:12:53;22.30;89.50
25192;DHT22;13143;50.924;5.320;2023-06-19T04:15:22;22.30;90.00
25192;DHT22;13143;50.924;5.320;2023-06-19T04:17:48;22.30;90.10
25192;DHT22;13143;50.924;5.320;2023-06-19T04:20:14;22.30;90.10
25192;DHT22;13143;50.924;5.320;2023-06-19T04:22:41;22.30;90.20
25192;DHT22;13143;50.924;5.320;2023-06-19T04:25:08;22.30;90.80
25192;DHT22;13143;50.924;5.320;2023-06-19T04:27:34;22.30;90.30
25192;DHT22;13143;50.924;5.320;2023-06-19T04:30:03;22.30;90.50
25192;DHT22;13143;50.924;5.320;2023-06-19T04:32:30;22.30;90.90
25192;DHT22;13143;50.924;5.320;2023-06-19T04:34:56;22.30;91.20
25192;DHT22;13143;50.924;5.320;2023-06-19T04:37:23;22.20;91.50
25192;DHT22;13143;50.924;5.320;2023-06-19T04:39:49;22.20;91.90
25192;DHT22;13143;50.924;5.320;2023-06-19T04:42:17;22.20;92.40
25192;DHT22;13143;50.924;5.320;2023-06-19T04:44:48;22.20;93.30
25192;DHT22;13143;50.924;5.320;2023-06-19T04:47:19;22.20;93.10
25192;DHT22;13143;50.924;5.320;2023-06-19T04:49:46;22.20;93.00
25192;DHT22;13143;50.924;5.320;2023-06-19T04:52:12;22.20;93.10
25192;DHT22;13143;50.924;5.320;2023-06-19T04:54:38;22.20;93.90
25192;DHT22;13143;50.924;5.320;2023-06-19T04:57:05;22.20;94.20
25192;DHT22;13143;50.924;5.320;2023-06-19T04:59:31;22.10;94.50
25192;DHT22;13143;50.924;5.320;2023-06-19T05:01:57;22.10;95.70
25192;DHT22;13143;50.924;5.320;2023-06-19T05:04:24;22.10;96.10
25192;DHT22;13143;50.924;5.320;2023-06-19T05:06:50;22.10;95.50
25192;DHT22;13143;50.924;5.320;2023-06-19T05:09:19;22.10;95.40
25192;DHT22;13143;50.924;5.320;2023-06-19T05:11:46;22.10;96.80
25192;DHT22;13143;50.924;5.320;2023-06-19T05:14:12;22.10;96.50
25192;DHT22;13143;50.924;5.320;2023-06-19T05:16:40;22.00;97.20
25192;DHT22;13143;50.924;5.320;2023-06-19T05:19:06;22.00;98.30
25192;DHT22;13143;50.924;5.320;2023-06-19T05:21:32;22.00;99.30
25192;DHT22;13143;50.924;5.320;2023-06-19T05:23:58;22.00;99.60
25192;DHT22;13143;50.924;5.320;2023-06-19T05:26:24;22.00;99.00
25192;DHT22;13143;50.924;5.320;2023-06-19T05:28:52;22.00;99.60
25192;DHT22;13143;50.924;5.320;2023-06-19T05:31:18;22.00;99.90
25192;DHT22;13143;50.924;5.320;2023-06-19T05:33:44;22.00;99.90
25192;DHT22;13143;50.924;5.320;2023-06-19T05:36:11;22.00;99.90
25192;DHT22;13143;50.924;5.320;2023-06-19T05:38:37;22.00;99.90
25192;DHT22;13143;50.924;5.320;2023-06-19T05:41:03;22.00;99.90
25192;DHT22;13143;50.924;5.320;2023-06-19T05:43:29;22.00;99.90
25192;DHT22;13143;50.924;5.320;2023-06-19T05:45:56;22.00;99.90
25192;DHT22;13143;50.924;5.320;2023-06-19T05:48:25;21.90;99.90
25192;DHT22;13143;50.924;5.320;2023-06-19T05:50:51;21.90;99.90
25192;DHT22;13143;50.924;5.320;2023-06-19T05:53:18;21.90;99.90
25192;DHT22;13143;50.924;5.320;2023-06-19T05:55:44;21.90;99.90
25192;DHT22;13143;50.924;5.320;2023-06-19T05:58:10;22.00;99.90
25192;DHT22;13143;50.924;5.320;2023-06-19T06:00:36;21.90;99.90
25192;DHT22;13143;50.924;5.320;2023-06-19T06:03:02;21.90;99.90
25192;DHT22;13143;50.924;5.320;2023-06-19T06:05:29;22.00;99.90
25192;DHT22;13143;50.924;5.320;2023-06-19T06:07:55;21.90;99.90
25192;DHT22;13143;50.924;5.320;2023-06-19T06:10:23;21.90;99.90
25192;DHT22;13143;50.924;5.320;2023-06-19T06:12:49;22.00;99.90
25192;DHT22;13143;50.924;5.320;2023-06-19T06:15:16;21.90;99.90
25192;DHT22;13143;50.924;5.320;2023-06-19T06:17:42;21.90;99.90
25192;DHT22;13143;50.924;5.320;2023-06-19T06:20:08;22.00;99.90
25192;DHT22;13143;50.924;5.320;2023-06-19T06:22:41;22.00;99.90
25192;DHT22;13143;50.924;5.320;2023-06-19T06:25:08;21.90;99.90
25192;DHT22;13143;50.924;5.320;2023-06-19T06:27:36;21.90;99.90
25192;DHT22;13143;50.924;5.320;2023-06-19T06:30:02;21.90;99.90
25192;DHT22;13143;50.924;5.320;2023-06-19T06:32:29;21.90;99.90
25192;DHT22;13143;50.924;5.320;2023-06-19T06:34:57;21.90;99.90
25192;DHT22;13143;50.924;5.320;2023-06-19T06:37:24;21.90;99.90
25192;DHT22;13143;50.924;5.320;2023-06-19T06:39:51;21.90;99.90
25192;DHT22;13143;50.924;5.320;2023-06-19T06:42:17;21.90;99.90
25192;DHT22;13143;50.924;5.320;2023-06-19T06:44:44;21.90;99.90
25192;DHT22;13143;50.924;5.320;2023-06-19T06:47:11;21.90;99.90
25192;DHT22;13143;50.924;5.320;2023-06-19T06:49:37;21.90;99.90
25192;DHT22;13143;50.924;5.320;2023-06-19T06:52:07;21.90;99.90
25192;DHT22;13143;50.924;5.320;2023-06-19T06:54:33;21.90;99.90
25192;DHT22;13143;50.924;5.320;2023-06-19T06:56:59;22.00;99.90
25192;DHT22;13143;50.924;5.320;2023-06-19T06:59:26;22.00;99.90
25192;DHT22;13143;50.924;5.320;2023-06-19T07:01:56;21.90;99.90
25192;DHT22;13143;50.924;5.320;2023-06-19T07:04:22;21.90;99.90
25192;DHT22;13143;50.924;5.320;2023-06-19T07:06:49;22.00;99.90
25192;DHT22;13143;50.924;5.320;2023-06-19T07:09:15;22.00;99.90
25192;DHT22;13143;50.924;5.320;2023-06-19T07:11:41;22.00;99.90
25192;DHT22;13143;50.924;5.320;2023-06-19T07:14:07;22.00;99.90
25192;DHT22;13143;50.924;5.320;2023-06-19T07:16:33;22.00;99.90
25192;DHT22;13143;50.924;5.320;2023-06-19T07:18:59;22.00;99.90
25192;DHT22;13143;50.924;5.320;2023-06-19T07:21:27;22.00;99.90
25192;DHT22;13143;50.924;5.320;2023-06-19T07:23:54;22.00;99.90
25192;DHT22;13143;50.924;5.320;2023-06-19T07:26:20;22.00;99.90
25192;DHT22;13143;50.924;5.320;2023-06-19T07:28:46;22.00;99.90
25192;DHT22;13143;50.924;5.320;2023-06-19T07:31:12;22.00;99.90
25192;DHT22;13143;50.924;5.320;2023-06-19T07:33:39;22.10;99.90
25192;DHT22;13143;50.924;5.320;2023-06-19T07:36:05;22.10;99.90
25192;DHT22;13143;50.924;5.320;2023-06-19T07:38:31;22.10;99.90
25192;DHT22;13143;50.924;5.320;2023-06-19T07:40:58;22.10;99.90
25192;DHT22;13143;50.924;5.320;2023-06-19T07:43:24;22.10;99.90
25192;DHT22;13143;50.924;5.320;2023-06-19T07:45:50;22.10;99.90
25192;DHT22;13143;50.924;5.320;2023-06-19T07:48:16;22.10;99.90
25192;DHT22;13143;50.924;5.320;2023-06-19T07:50:42;22.20;99.90
25192;DHT22;13143;50.924;5.320;2023-06-19T07:53:09;22.10;99.90
25192;DHT22;13143;50.924;5.320;2023-06-19T07:55:35;22.20;99.90
25192;DHT22;13143;50.924;5.320;2023-06-19T07:58:01;22.20;99.90
25192;DHT22;13143;50.924;5.320;2023-06-19T08:00:27;22.20;99.90
25192;DHT22;13143;50.924;5.320;2023-06-19T08:02:54;22.20;99.90
25192;DHT22;13143;50.924;5.320;2023-06-19T08:05:20;22.20;99.90
25192;DHT22;13143;50.924;5.320;2023-06-19T08:07:46;22.20;99.90
25192;DHT22;13143;50.924;5.320;2023-06-19T08:10:13;22.20;99.90
25192;DHT22;13143;50.924;5.320;2023-06-19T08:12:41;22.30;99.90
25192;DHT22;13143;50.924;5.320;2023-06-19T08:15:07;22.20;99.90
25192;DHT22;13143;50.924;5.320;2023-06-19T08:17:34;22.30;99.90
25192;DHT22;13143;50.924;5.320;2023-06-19T08:20:01;22.30;99.90
25192;DHT22;13143;50.924;5.320;2023-06-19T08:22:29;22.30;99.90
25192;DHT22;13143;50.924;5.320;2023-06-19T08:24:55;22.30;99.90
25192;DHT22;13143;50.924;5.320;2023-06-19T08:27:21;22.30;99.90
25192;DHT22;13143;50.924;5.320;2023-06-19T08:29:48;22.30;99.90
25192;DHT22;13143;50.924;5.320;2023-06-19T08:32:14;22.30;99.90
25192;DHT22;13143;50.924;5.320;2023-06-19T08:34:40;22.40;99.90
25192;DHT22;13143;50.924;5.320;2023-06-19T08:37:07;22.40;99.90
25192;DHT22;13143;50.924;5.320;2023-06-19T08:39:34;22.40;99.90
25192;DHT22;13143;50.924;5.320;2023-06-19T08:42:08;22.40;99.90
25192;DHT22;13143;50.924;5.320;2023-06-19T08:44:35;22.40;99.90
25192;DHT22;13143;50.924;5.320;2023-06-19T08:47:05;22.40;99.80
25192;DHT22;13143;50.924;5.320;2023-06-19T08:49:34;22.50;99.30
25192;DHT22;13143;50.924;5.320;2023-06-19T08:52:02;22.50;98.90
25192;DHT22;13143;50.924;5.320;2023-06-19T08:54:28;22.50;99.10
25192;DHT22;13143;50.924;5.320;2023-06-19T08:56:55;22.50;99.10
25192;DHT22;13143;50.924;5.320;2023-06-19T08:59:21;22.50;98.60
25192;DHT22;13143;50.924;5.320;2023-06-19T09:01:48;22.50;98.40
25192;DHT22;13143;50.924;5.320;2023-06-19T09:04:26;22.50;98.10
25192;DHT22;13143;50.924;5.320;2023-06-19T09:06:55;22.60;97.70
25192;DHT22;13143;50.924;5.320;2023-06-19T09:09:22;22.60;97.70
25192;DHT22;13143;50.924;5.320;2023-06-19T09:12:08;22.60;97.50
25192;DHT22;13143;50.924;5.320;2023-06-19T09:14:41;22.60;97.30
25192;DHT22;13143;50.924;5.320;2023-06-19T09:17:16;22.60;97.00
25192;DHT22;13143;50.924;5.320;2023-06-19T09:19:53;22.60;96.80
25192;DHT22;13143;50.924;5.320;2023-06-19T09:22:22;22.60;96.70
25192;DHT22;13143;50.924;5.320;2023-06-19T09:24:49;22.60;96.80
25192;DHT22;13143;50.924;5.320;2023-06-19T09:27:17;22.60;96.70
25192;DHT22;13143;50.924;5.320;2023-06-19T09:29:48;22.70;96.90
25192;DHT22;13143;50.924;5.320;2023-06-19T09:32:21;22.70;96.80
25192;DHT22;13143;50.924;5.320;2023-06-19T09:34:48;22.70;96.80
25192;DHT22;13143;50.924;5.320;2023-06-19T09:37:22;22.70;96.60
25192;DHT22;13143;50.924;5.320;2023-06-19T09:42:31;22.70;96.60
25192;DHT22;13143;50.924;5.320;2023-06-19T09:45:03;22.80;96.60
25192;DHT22;13143;50.924;5.320;2023-06-19T09:47:36;22.80;96.50
25192;DHT22;13143;50.924;5.320;2023-06-19T09:50:03;22.80;96.40
25192;DHT22;13143;50.924;5.320;2023-06-19T09:52:29;22.90;96.50
25192;DHT22;13143;50.924;5.320;2023-06-19T09:54:56;22.90;96.50
25192;DHT22;13143;50.924;5.320;2023-06-19T09:57:24;22.90;96.40
25192;DHT22;13143;50.924;5.320;2023-06-19T09:59:54;22.90;96.30
25192;DHT22;13143;50.924;5.320;2023-06-19T10:02:22;23.00;96.20
25192;DHT22;13143;50.924;5.320;2023-06-19T10:04:55;23.00;96.00
25192;DHT22;13143;50.924;5.320;2023-06-19T10:07:23;23.00;95.80
25192;DHT22;13143;50.924;5.320;2023-06-19T10:10:10;23.00;95.40
25192;DHT22;13143;50.924;5.320;2023-06-19T10:12:42;23.00;95.40
25192;DHT22;13143;50.924;5.320;2023-06-19T10:15:16;23.10;95.30
25192;DHT22;13143;50.924;5.320;2023-06-19T10:17:59;23.10;95.30
25192;DHT22;13143;50.924;5.320;2023-06-19T10:20:32;23.10;94.90
25192;DHT22;13143;50.924;5.320;2023-06-19T10:23:13;23.10;94.80
25192;DHT22;13143;50.924;5.320;2023-06-19T10:25:44;23.10;94.80
25192;DHT22;13143;50.924;5.320;2023-06-19T10:28:19;23.10;94.80
25192;DHT22;13143;50.924;5.320;2023-06-19T10:33:24;23.20;94.70
25192;DHT22;13143;50.924;5.320;2023-06-19T10:35:51;23.20;94.70
25192;DHT22;13143;50.924;5.320;2023-06-19T10:38:17;23.30;94.80
25192;DHT22;13143;50.924;5.320;2023-06-19T10:40:44;23.30;94.50
25192;DHT22;13143;50.924;5.320;2023-06-19T10:43:12;23.30;94.40
25192;DHT22;13143;50.924;5.320;2023-06-19T10:45:38;23.30;94.30
25192;DHT22;13143;50.924;5.320;2023-06-19T10:48:05;23.30;94.40
25192;DHT22;13143;50.924;5.320;2023-06-19T10:50:36;23.40;94.30
25192;DHT22;13143;50.924;5.320;2023-06-19T10:53:04;23.40;94.30
25192;DHT22;13143;50.924;5.320;2023-06-19T10:55:30;23.40;94.10
25192;DHT22;13143;50.924;5.320;2023-06-19T10:57:56;23.40;94.00
25192;DHT22;13143;50.924;5.320;2023-06-19T11:00:30;23.50;93.70
25192;DHT22;13143;50.924;5.320;2023-06-19T11:02:57;23.50;93.40
25192;DHT22;13143;50.924;5.320;2023-06-19T11:05:25;23.50;93.20
25192;DHT22;13143;50.924;5.320;2023-06-19T11:08:00;23.50;92.80
25192;DHT22;13143;50.924;5.320;2023-06-19T11:10:28;23.60;92.70
25192;DHT22;13143;50.924;5.320;2023-06-19T11:12:56;23.60;92.40
25192;DHT22;13143;50.924;5.320;2023-06-19T11:15:30;23.60;92.20
25192;DHT22;13143;50.924;5.320;2023-06-19T11:17:57;23.60;92.00
25192;DHT22;13143;50.924;5.320;2023-06-19T11:20:24;23.60;91.90
25192;DHT22;13143;50.924;5.320;2023-06-19T11:22:58;23.70;91.90
25192;DHT22;13143;50.924;5.320;2023-06-19T11:25:35;23.70;92.00
25192;DHT22;13143;50.924;5.320;2023-06-19T11:28:02;23.70;92.00
25192;DHT22;13143;50.924;5.320;2023-06-19T11:30:33;23.70;92.10
25192;DHT22;13143;50.924;5.320;2023-06-19T11:32:59;23.80;91.70
25192;DHT22;13143;50.924;5.320;2023-06-19T11:35:33;23.80;91.40
25192;DHT22;13143;50.924;5.320;2023-06-19T11:38:02;23.80;91.00
25192;DHT22;13143;50.924;5.320;2023-06-19T11:40:38;23.80;90.60
25192;DHT22;13143;50.924;5.320;2023-06-19T11:43:05;23.90;90.40
25192;DHT22;13143;50.924;5.320;2023-06-19T11:45:31;23.90;90.20
25192;DHT22;13143;50.924;5.320;2023-06-19T11:47:57;23.90;90.10
25192;DHT22;13143;50.924;5.320;2023-06-19T11:50:27;24.00;90.60
25192;DHT22;13143;50.924;5.320;2023-06-19T11:52:53;24.00;90.30
25192;DHT22;13143;50.924;5.320;2023-06-19T11:55:19;24.00;90.30
25192;DHT22;13143;50.924;5.320;2023-06-19T11:57:45;24.00;90.10
25192;DHT22;13143;50.924;5.320;2023-06-19T12:00:14;24.00;90.00
25192;DHT22;13143;50.924;5.320;2023-06-19T12:02:41;24.10;89.90
25192;DHT22;13143;50.924;5.320;2023-06-19T12:05:07;24.10;89.80
25192;DHT22;13143;50.924;5.320;2023-06-19T12:07:34;24.10;90.00
25192;DHT22;13143;50.924;5.320;2023-06-19T12:10:00;24.10;88.90
25192;DHT22;13143;50.924;5.320;2023-06-19T12:12:28;24.20;88.50
25192;DHT22;13143;50.924;5.320;2023-06-19T12:14:55;24.20;88.20
25192;DHT22;13143;50.924;5.320;2023-06-19T12:17:22;24.20;87.90
25192;DHT22;13143;50.924;5.320;2023-06-19T12:19:48;24.20;87.80
25192;DHT22;13143;50.924;5.320;2023-06-19T12:22:15;24.20;87.70
25192;DHT22;13143;50.924;5.320;2023-06-19T12:24:41;24.20;87.60
25192;DHT22;13143;50.924;5.320;2023-06-19T12:27:07;24.30;87.10
25192;DHT22;13143;50.924;5.320;2023-06-19T12:29:33;24.30;86.40
25192;DHT22;13143;50.924;5.320;2023-06-19T12:32:01;24.30;86.10
25192;DHT22;13143;50.924;5.320;2023-06-19T12:34:28;24.40;85.90
25192;DHT22;13143;50.924;5.320;2023-06-19T12:36:54;24.40;85.70
25192;DHT22;13143;50.924;5.320;2023-06-19T12:39:20;24.40;85.70
25192;DHT22;13143;50.924;5.320;2023-06-19T12:41:47;24.40;85.50
25192;DHT22;13143;50.924;5.320;2023-06-19T12:44:13;24.50;84.60
25192;DHT22;13143;50.924;5.320;2023-06-19T12:46:39;24.40;83.50
25192;DHT22;13143;50.924;5.320;2023-06-19T12:49:05;24.50;82.80
25192;DHT22;13143;50.924;5.320;2023-06-19T12:51:33;24.50;82.30
25192;DHT22;13143;50.924;5.320;2023-06-19T12:53:59;24.50;82.10
25192;DHT22;13143;50.924;5.320;2023-06-19T12:56:25;24.60;82.20
25192;DHT22;13143;50.924;5.320;2023-06-19T12:58:51;24.60;82.40
25192;DHT22;13143;50.924;5.320;2023-06-19T13:01:18;24.60;82.40
25192;DHT22;13143;50.924;5.320;2023-06-19T13:03:44;24.60;82.60
25192;DHT22;13143;50.924;5.320;2023-06-19T13:06:10;24.60;82.60
25192;DHT22;13143;50.924;5.320;2023-06-19T13:08:36;24.60;82.60
25192;DHT22;13143;50.924;5.320;2023-06-19T13:11:02;24.70;82.50
25192;DHT22;13143;50.924;5.320;2023-06-19T13:13:28;24.70;82.40
25192;DHT22;13143;50.924;5.320;2023-06-19T13:15:54;24.70;82.20
25192;DHT22;13143;50.924;5.320;2023-06-19T13:18:20;24.80;82.30
25192;DHT22;13143;50.924;5.320;2023-06-19T13:20:47;24.80;81.20
25192;DHT22;13143;50.924;5.320;2023-06-19T13:23:14;24.90;81.00
25192;DHT22;13143;50.924;5.320;2023-06-19T13:25:40;24.90;80.90
25192;DHT22;13143;50.924;5.320;2023-06-19T13:28:06;24.90;80.60
25192;DHT22;13143;50.924;5.320;2023-06-19T13:30:33;24.90;80.20
25192;DHT22;13143;50.924;5.320;2023-06-19T13:32:59;24.90;79.70
25192;DHT22;13143;50.924;5.320;2023-06-19T13:35:25;25.00;79.40
25192;DHT22;13143;50.924;5.320;2023-06-19T13:37:51;25.00;79.10
25192;DHT22;13143;50.924;5.320;2023-06-19T13:40:17;25.00;79.30
25192;DHT22;13143;50.924;5.320;2023-06-19T13:42:43;25.00;79.60
25192;DHT22;13143;50.924;5.320;2023-06-19T13:45:10;25.10;79.70
25192;DHT22;13143;50.924;5.320;2023-06-19T13:47:36;25.10;79.70
25192;DHT22;13143;50.924;5.320;2023-06-19T13:50:03;25.10;79.10
25192;DHT22;13143;50.924;5.320;2023-06-19T13:52:29;25.20;79.60
25192;DHT22;13143;50.924;5.320;2023-06-19T13:54:55;25.20;78.40
25192;DHT22;13143;50.924;5.320;2023-06-19T13:57:22;25.20;78.50
25192;DHT22;13143;50.924;5.320;2023-06-19T13:59:48;25.20;79.00
25192;DHT22;13143;50.924;5.320;2023-06-19T14:02:14;25.20;78.20
25192;DHT22;13143;50.924;5.320;2023-06-19T14:04:41;25.30;78.30
25192;DHT22;13143;50.924;5.320;2023-06-19T14:07:07;25.30;78.50
25192;DHT22;13143;50.924;5.320;2023-06-19T14:09:33;25.30;78.50
25192;DHT22;13143;50.924;5.320;2023-06-19T14:11:59;25.30;78.60
25192;DHT22;13143;50.924;5.320;2023-06-19T14:14:25;25.40;78.50
25192;DHT22;13143;50.924;5.320;2023-06-19T14:16:52;25.40;78.10
25192;DHT22;13143;50.924;5.320;2023-06-19T14:19:18;25.40;78.10
25192;DHT22;13143;50.924;5.320;2023-06-19T14:21:44;25.40;77.80
25192;DHT22;13143;50.924;5.320;2023-06-19T14:24:10;25.50;77.50
25192;DHT22;13143;50.924;5.320;2023-06-19T14:26:36;25.50;78.00
25192;DHT22;13143;50.924;5.320;2023-06-19T14:29:03;25.50;77.20
25192;DHT22;13143;50.924;5.320;2023-06-19T14:31:29;25.50;77.20
25192;DHT22;13143;50.924;5.320;2023-06-19T14:33:55;25.50;76.90
25192;DHT22;13143;50.924;5.320;2023-06-19T14:36:21;25.60;76.80
25192;DHT22;13143;50.924;5.320;2023-06-19T14:38:47;25.60;76.80
25192;DHT22;13143;50.924;5.320;2023-06-19T14:41:13;25.60;76.50
25192;DHT22;13143;50.924;5.320;2023-06-19T14:43:39;25.70;76.60
25192;DHT22;13143;50.924;5.320;2023-06-19T14:46:06;25.70;76.50
25192;DHT22;13143;50.924;5.320;2023-06-19T14:48:32;25.70;76.40
25192;DHT22;13143;50.924;5.320;2023-06-19T14:50:58;25.70;76.30
25192;DHT22;13143;50.924;5.320;2023-06-19T14:53:24;25.80;76.30
25192;DHT22;13143;50.924;5.320;2023-06-19T14:55:51;25.80;76.30
25192;DHT22;13143;50.924;5.320;2023-06-19T14:58:17;25.80;76.40
25192;DHT22;13143;50.924;5.320;2023-06-19T15:00:43;25.80;76.20
25192;DHT22;13143;50.924;5.320;2023-06-19T15:03:09;25.80;76.10
25192;DHT22;13143;50.924;5.320;2023-06-19T15:05:35;25.90;76.10
25192;DHT22;13143;50.924;5.320;2023-06-19T15:08:01;25.90;76.00
25192;DHT22;13143;50.924;5.320;2023-06-19T15:10:29;25.90;75.80
25192;DHT22;13143;50.924;5.320;2023-06-19T15:12:55;25.90;75.80
25192;DHT22;13143;50.924;5.320;2023-06-19T15:15:21;26.00;75.70
25192;DHT22;13143;50.924;5.320;2023-06-19T15:17:48;26.00;75.60
25192;DHT22;13143;50.924;5.320;2023-06-19T15:20:14;26.10;75.80
25192;DHT22;13143;50.924;5.320;2023-06-19T15:22:42;26.10;75.90
25192;DHT22;13143;50.924;5.320;2023-06-19T15:25:08;26.10;75.80
25192;DHT22;13143;50.924;5.320;2023-06-19T15:27:35;26.10;75.60
25192;DHT22;13143;50.924;5.320;2023-06-19T15:30:01;26.10;75.80
25192;DHT22;13143;50.924;5.320;2023-06-19T15:32:27;26.20;76.00
25192;DHT22;13143;50.924;5.320;2023-06-19T15:34:53;26.20;75.60